sensor_id;sensor_type;location;lat;lon;timestamp;P1;durP1;ratioP1;P2;durP2;ratioP2
44169;SDS011;29836;52.286;9.576;2023-09-19T00:01:33;4.65;;;1.95;;
44169;SDS011;29836;52.286;9.576;2023-09-19T00:03:59;4.07;;;2.17;;
44169;SDS011;29836;52.286;9.576;2023-09-19T00:06:27;4.85;;;2.40;;
44169;SDS011;29836;52.286;9.576;2023-09-19T00:08:56;4.25;;;1.92;;
44169;SDS011;29836;52.286;9.576;2023-09-19T00:11:23;4.07;;;2.22;;
44169;SDS011;29836;52.286;9.576;2023-09-19T00:13:51;5.80;;;2.22;;
44169;SDS011;29836;52.286;9.576;2023-09-19T00:16:17;3.67;;;2.30;;
44169;SDS011;29836;52.286;9.576;2023-09-19T00:18:44;4.95;;;2.10;;
44169;SDS011;29836;52.286;9.576;2023-09-19T00:21:09;6.00;;;2.50;;
44169;SDS011;29836;52.286;9.576;2023-09-19T00:23:35;3.85;;;2.80;;
44169;SDS011;29836;52.286;9.576;2023-09-19T00:26:01;6.60;;;2.97;;
44169;SDS011;29836;52.286;9.576;2023-09-19T00:28:27;5.57;;;3.03;;
44169;SDS011;29836;52.286;9.576;2023-09-19T00:30:52;9.00;;;3.28;;
44169;SDS011;29836;52.286;9.576;2023-09-19T00:33:20;9.68;;;3.20;;
44169;SDS011;29836;52.286;9.576;2023-09-19T00:38:15;5.32;;;3.10;;
44169;SDS011;29836;52.286;9.576;2023-09-19T00:40:45;7.03;;;3.35;;
44169;SDS011;29836;52.286;9.576;2023-09-19T00:43:11;7.53;;;3.10;;
44169;SDS011;29836;52.286;9.576;2023-09-19T00:45:37;4.75;;;2.42;;
44169;SDS011;29836;52.286;9.576;2023-09-19T00:48:04;7.95;;;3.10;;
44169;SDS011;29836;52.286;9.576;2023-09-19T00:50:32;9.43;;;3.20;;
44169;SDS011;29836;52.286;9.576;2023-09-19T00:52:58;4.63;;;3.25;;
44169;SDS011;29836;52.286;9.576;2023-09-19T00:55:24;5.07;;;3.20;;
44169;SDS011;29836;52.286;9.576;2023-09-19T00:57:50;5.18;;;3.38;;
44169;SDS011;29836;52.286;9.576;2023-09-19T01:00:17;7.53;;;3.58;;
44169;SDS011;29836;52.286;9.576;2023-09-19T01:02:45;6.03;;;3.70;;
44169;SDS011;29836;52.286;9.576;2023-09-19T01:05:11;5.63;;;3.40;;
44169;SDS011;29836;52.286;9.576;2023-09-19T01:07:37;6.00;;;3.60;;
44169;SDS011;29836;52.286;9.576;2023-09-19T01:10:06;6.93;;;3.63;;
44169;SDS011;29836;52.286;9.576;2023-09-19T01:12:43;7.53;;;3.75;;
44169;SDS011;29836;52.286;9.576;2023-09-19T01:15:19;6.43;;;3.40;;
44169;SDS011;29836;52.286;9.576;2023-09-19T01:18:11;11.02;;;4.20;;
44169;SDS011;29836;52.286;9.576;2023-09-19T01:20:53;9.65;;;4.15;;
44169;SDS011;29836;52.286;9.576;2023-09-19T01:31:38;9.35;;;3.72;;
44169;SDS011;29836;52.286;9.576;2023-09-19T01:34:07;9.02;;;4.00;;
44169;SDS011;29836;52.286;9.576;2023-09-19T01:36:37;9.93;;;3.80;;
44169;SDS011;29836;52.286;9.576;2023-09-19T01:39:07;7.35;;;3.40;;
44169;SDS011;29836;52.286;9.576;2023-09-19T01:44:17;6.40;;;3.25;;
44169;SDS011;29836;52.286;9.576;2023-09-19T01:46:57;8.60;;;3.67;;
44169;SDS011;29836;52.286;9.576;2023-09-19T01:49:37;7.03;;;2.95;;
44169;SDS011;29836;52.286;9.576;2023-09-19T01:52:13;5.07;;;3.15;;
44169;SDS011;29836;52.286;9.576;2023-09-19T01:54:48;7.70;;;3.75;;
44169;SDS011;29836;52.286;9.576;2023-09-19T01:57:28;7.45;;;3.85;;
44169;SDS011;29836;52.286;9.576;2023-09-19T02:00:16;8.15;;;3.78;;
44169;SDS011;29836;52.286;9.576;2023-09-19T02:02:45;8.15;;;3.85;;
44169;SDS011;29836;52.286;9.576;2023-09-19T02:05:12;9.88;;;4.07;;
44169;SDS011;29836;52.286;9.576;2023-09-19T02:07:46;7.18;;;3.85;;
44169;SDS011;29836;52.286;9.576;2023-09-19T02:10:12;7.10;;;3.60;;
44169;SDS011;29836;52.286;9.576;2023-09-19T02:12:39;8.90;;;3.80;;
44169;SDS011;29836;52.286;9.576;2023-09-19T02:15:04;8.13;;;4.38;;
44169;SDS011;29836;52.286;9.576;2023-09-19T02:17:31;6.00;;;4.03;;
44169;SDS011;29836;52.286;9.576;2023-09-19T02:19:57;8.15;;;4.15;;
44169;SDS011;29836;52.286;9.576;2023-09-19T02:22:24;6.00;;;4.05;;
44169;SDS011;29836;52.286;9.576;2023-09-19T02:24:49;8.98;;;4.07;;
44169;SDS011;29836;52.286;9.576;2023-09-19T02:27:16;8.07;;;4.15;;
44169;SDS011;29836;52.286;9.576;2023-09-19T02:29:42;9.23;;;4.38;;
44169;SDS011;29836;52.286;9.576;2023-09-19T02:32:08;8.98;;;4.13;;
44169;SDS011;29836;52.286;9.576;2023-09-19T02:34:37;11.57;;;4.60;;
44169;SDS011;29836;52.286;9.576;2023-09-19T02:37:04;10.15;;;4.38;;
44169;SDS011;29836;52.286;9.576;2023-09-19T02:39:30;7.07;;;4.10;;
44169;SDS011;29836;52.286;9.576;2023-09-19T02:41:57;6.53;;;3.83;;
44169;SDS011;29836;52.286;9.576;2023-09-19T02:44:22;9.93;;;4.10;;
44169;SDS011;29836;52.286;9.576;2023-09-19T02:46:49;7.95;;;3.95;;
44169;SDS011;29836;52.286;9.576;2023-09-19T02:49:15;8.63;;;4.00;;
44169;SDS011;29836;52.286;9.576;2023-09-19T02:51:40;6.15;;;3.35;;
44169;SDS011;29836;52.286;9.576;2023-09-19T02:54:06;7.93;;;3.67;;
44169;SDS011;29836;52.286;9.576;2023-09-19T02:56:32;8.30;;;3.63;;
44169;SDS011;29836;52.286;9.576;2023-09-19T02:58:58;6.55;;;3.17;;
44169;SDS011;29836;52.286;9.576;2023-09-19T03:01:25;5.35;;;2.90;;
44169;SDS011;29836;52.286;9.576;2023-09-19T03:03:52;4.63;;;2.80;;
44169;SDS011;29836;52.286;9.576;2023-09-19T03:06:18;5.68;;;3.20;;
44169;SDS011;29836;52.286;9.576;2023-09-19T03:08:45;6.45;;;3.17;;
44169;SDS011;29836;52.286;9.576;2023-09-19T03:11:12;6.82;;;3.17;;
44169;SDS011;29836;52.286;9.576;2023-09-19T03:13:40;10.02;;;3.22;;
44169;SDS011;29836;52.286;9.576;2023-09-19T03:16:07;7.28;;;2.50;;
44169;SDS011;29836;52.286;9.576;2023-09-19T03:18:35;7.32;;;3.15;;
44169;SDS011;29836;52.286;9.576;2023-09-19T03:21:01;6.82;;;2.65;;
44169;SDS011;29836;52.286;9.576;2023-09-19T03:23:26;10.52;;;3.38;;
44169;SDS011;29836;52.286;9.576;2023-09-19T03:25:52;10.43;;;2.78;;
44169;SDS011;29836;52.286;9.576;2023-09-19T03:28:19;8.73;;;3.05;;
44169;SDS011;29836;52.286;9.576;2023-09-19T03:30:45;6.30;;;3.10;;
44169;SDS011;29836;52.286;9.576;2023-09-19T03:33:11;5.60;;;2.72;;
44169;SDS011;29836;52.286;9.576;2023-09-19T03:35:37;5.72;;;2.72;;
44169;SDS011;29836;52.286;9.576;2023-09-19T03:38:04;8.15;;;2.83;;
44169;SDS011;29836;52.286;9.576;2023-09-19T03:40:30;7.93;;;3.22;;
44169;SDS011;29836;52.286;9.576;2023-09-19T03:42:56;7.20;;;3.20;;
44169;SDS011;29836;52.286;9.576;2023-09-19T03:45:21;9.30;;;2.90;;
44169;SDS011;29836;52.286;9.576;2023-09-19T03:47:47;6.65;;;2.55;;
44169;SDS011;29836;52.286;9.576;2023-09-19T03:50:12;7.43;;;2.95;;
44169;SDS011;29836;52.286;9.576;2023-09-19T03:52:42;8.55;;;3.13;;
44169;SDS011;29836;52.286;9.576;2023-09-19T03:55:09;8.52;;;3.58;;
44169;SDS011;29836;52.286;9.576;2023-09-19T03:57:35;10.90;;;3.50;;
44169;SDS011;29836;52.286;9.576;2023-09-19T04:00:01;7.38;;;3.75;;
44169;SDS011;29836;52.286;9.576;2023-09-19T04:02:27;9.20;;;3.25;;
44169;SDS011;29836;52.286;9.576;2023-09-19T04:04:58;8.93;;;3.75;;
44169;SDS011;29836;52.286;9.576;2023-09-19T04:07:24;6.32;;;2.83;;
44169;SDS011;29836;52.286;9.576;2023-09-19T04:09:51;5.72;;;3.13;;
44169;SDS011;29836;52.286;9.576;2023-09-19T04:12:18;6.40;;;3.10;;
44169;SDS011;29836;52.286;9.576;2023-09-19T04:14:44;8.48;;;3.38;;
44169;SDS011;29836;52.286;9.576;2023-09-19T04:17:10;7.15;;;3.17;;
44169;SDS011;29836;52.286;9.576;2023-09-19T04:19:35;11.40;;;3.40;;
44169;SDS011;29836;52.286;9.576;2023-09-19T04:22:01;4.32;;;3.10;;
44169;SDS011;29836;52.286;9.576;2023-09-19T04:24:28;8.80;;;3.40;;
44169;SDS011;29836;52.286;9.576;2023-09-19T04:26:54;16.55;;;4.60;;
44169;SDS011;29836;52.286;9.576;2023-09-19T04:29:19;8.38;;;4.00;;
44169;SDS011;29836;52.286;9.576;2023-09-19T04:31:45;6.43;;;4.43;;
44169;SDS011;29836;52.286;9.576;2023-09-19T04:34:11;11.65;;;4.95;;
44169;SDS011;29836;52.286;9.576;2023-09-19T04:36:42;11.50;;;4.82;;
44169;SDS011;29836;52.286;9.576;2023-09-19T04:39:08;14.68;;;5.90;;
44169;SDS011;29836;52.286;9.576;2023-09-19T04:41:37;15.80;;;5.63;;
44169;SDS011;29836;52.286;9.576;2023-09-19T04:44:06;9.60;;;5.15;;
44169;SDS011;29836;52.286;9.576;2023-09-19T04:46:34;9.30;;;5.30;;
44169;SDS011;29836;52.286;9.576;2023-09-19T04:49:00;11.80;;;5.43;;
44169;SDS011;29836;52.286;9.576;2023-09-19T04:51:27;12.25;;;5.40;;
44169;SDS011;29836;52.286;9.576;2023-09-19T04:53:57;10.68;;;5.50;;
44169;SDS011;29836;52.286;9.576;2023-09-19T04:56:23;11.85;;;5.22;;
44169;SDS011;29836;52.286;9.576;2023-09-19T04:58:49;8.75;;;5.03;;
44169;SDS011;29836;52.286;9.576;2023-09-19T05:01:14;9.13;;;5.10;;
44169;SDS011;29836;52.286;9.576;2023-09-19T05:03:40;8.63;;;5.00;;
44169;SDS011;29836;52.286;9.576;2023-09-19T05:06:05;11.00;;;5.00;;
44169;SDS011;29836;52.286;9.576;2023-09-19T05:08:31;8.30;;;5.00;;
44169;SDS011;29836;52.286;9.576;2023-09-19T05:10:57;7.82;;;4.55;;
44169;SDS011;29836;52.286;9.576;2023-09-19T05:13:22;14.52;;;5.50;;
44169;SDS011;29836;52.286;9.576;2023-09-19T05:15:49;10.52;;;4.85;;
44169;SDS011;29836;52.286;9.576;2023-09-19T05:18:17;9.18;;;4.97;;
44169;SDS011;29836;52.286;9.576;2023-09-19T05:20:43;11.13;;;5.38;;
44169;SDS011;29836;52.286;9.576;2023-09-19T05:23:08;12.93;;;5.45;;
44169;SDS011;29836;52.286;9.576;2023-09-19T05:25:37;9.00;;;4.72;;
44169;SDS011;29836;52.286;9.576;2023-09-19T05:28:04;11.30;;;4.65;;
44169;SDS011;29836;52.286;9.576;2023-09-19T05:30:31;8.88;;;4.40;;
44169;SDS011;29836;52.286;9.576;2023-09-19T05:32:57;11.88;;;4.70;;
44169;SDS011;29836;52.286;9.576;2023-09-19T05:35:23;7.72;;;4.50;;
44169;SDS011;29836;52.286;9.576;2023-09-19T05:37:52;13.52;;;4.85;;
44169;SDS011;29836;52.286;9.576;2023-09-19T05:40:19;12.20;;;4.40;;
44169;SDS011;29836;52.286;9.576;2023-09-19T05:42:46;9.35;;;4.55;;
44169;SDS011;29836;52.286;9.576;2023-09-19T05:45:12;8.65;;;4.25;;
44169;SDS011;29836;52.286;9.576;2023-09-19T05:47:41;9.70;;;3.90;;
44169;SDS011;29836;52.286;9.576;2023-09-19T05:50:08;9.18;;;4.30;;
44169;SDS011;29836;52.286;9.576;2023-09-19T05:52:37;11.63;;;4.40;;
44169;SDS011;29836;52.286;9.576;2023-09-19T05:55:06;10.52;;;4.15;;
44169;SDS011;29836;52.286;9.576;2023-09-19T05:57:36;12.13;;;4.07;;
44169;SDS011;29836;52.286;9.576;2023-09-19T06:00:07;10.03;;;4.43;;
44169;SDS011;29836;52.286;9.576;2023-09-19T06:02:35;8.00;;;4.00;;
44169;SDS011;29836;52.286;9.576;2023-09-19T06:05:02;7.10;;;3.80;;
44169;SDS011;29836;52.286;9.576;2023-09-19T06:07:32;9.88;;;4.22;;
44169;SDS011;29836;52.286;9.576;2023-09-19T06:10:05;10.02;;;4.45;;
44169;SDS011;29836;52.286;9.576;2023-09-19T06:12:31;13.18;;;4.10;;
44169;SDS011;29836;52.286;9.576;2023-09-19T06:15:00;9.23;;;4.07;;
44169;SDS011;29836;52.286;9.576;2023-09-19T06:17:25;7.65;;;3.33;;
44169;SDS011;29836;52.286;9.576;2023-09-19T06:19:53;12.40;;;3.72;;
44169;SDS011;29836;52.286;9.576;2023-09-19T06:22:20;11.30;;;3.78;;
44169;SDS011;29836;52.286;9.576;2023-09-19T06:24:47;7.15;;;3.40;;
44169;SDS011;29836;52.286;9.576;2023-09-19T06:27:13;7.72;;;3.80;;
44169;SDS011;29836;52.286;9.576;2023-09-19T06:29:38;6.93;;;3.35;;
44169;SDS011;29836;52.286;9.576;2023-09-19T06:32:08;8.65;;;3.45;;
44169;SDS011;29836;52.286;9.576;2023-09-19T06:34:35;7.10;;;3.42;;
44169;SDS011;29836;52.286;9.576;2023-09-19T06:37:01;10.70;;;3.40;;
44169;SDS011;29836;52.286;9.576;2023-09-19T06:39:28;11.02;;;2.97;;
44169;SDS011;29836;52.286;9.576;2023-09-19T06:41:53;7.50;;;3.20;;
44169;SDS011;29836;52.286;9.576;2023-09-19T06:44:19;15.80;;;3.05;;
44169;SDS011;29836;52.286;9.576;2023-09-19T06:46:49;9.40;;;2.90;;
44169;SDS011;29836;52.286;9.576;2023-09-19T06:49:16;6.25;;;2.33;;
44169;SDS011;29836;52.286;9.576;2023-09-19T06:51:42;10.82;;;2.60;;
44169;SDS011;29836;52.286;9.576;2023-09-19T06:54:08;14.05;;;2.70;;
44169;SDS011;29836;52.286;9.576;2023-09-19T06:56:34;7.05;;;2.55;;
44169;SDS011;29836;52.286;9.576;2023-09-19T06:59:00;5.53;;;2.03;;
44169;SDS011;29836;52.286;9.576;2023-09-19T07:01:27;8.88;;;2.40;;
44169;SDS011;29836;52.286;9.576;2023-09-19T07:03:53;10.05;;;2.20;;
44169;SDS011;29836;52.286;9.576;2023-09-19T07:06:18;7.97;;;2.45;;
44169;SDS011;29836;52.286;9.576;2023-09-19T07:08:44;6.90;;;1.95;;
44169;SDS011;29836;52.286;9.576;2023-09-19T07:11:10;6.60;;;2.00;;
44169;SDS011;29836;52.286;9.576;2023-09-19T07:13:37;6.78;;;1.90;;
44169;SDS011;29836;52.286;9.576;2023-09-19T07:16:03;7.78;;;1.98;;
44169;SDS011;29836;52.286;9.576;2023-09-19T07:18:29;5.85;;;1.88;;
44169;SDS011;29836;52.286;9.576;2023-09-19T07:20:58;10.07;;;2.10;;
44169;SDS011;29836;52.286;9.576;2023-09-19T07:23:30;7.57;;;2.00;;
44169;SDS011;29836;52.286;9.576;2023-09-19T07:26:00;8.57;;;1.75;;
44169;SDS011;29836;52.286;9.576;2023-09-19T07:28:26;7.40;;;2.00;;
44169;SDS011;29836;52.286;9.576;2023-09-19T07:30:53;6.72;;;1.80;;
44169;SDS011;29836;52.286;9.576;2023-09-19T07:33:19;7.03;;;1.90;;
44169;SDS011;29836;52.286;9.576;2023-09-19T07:35:47;6.45;;;1.60;;
44169;SDS011;29836;52.286;9.576;2023-09-19T07:38:13;6.68;;;1.83;;
44169;SDS011;29836;52.286;9.576;2023-09-19T07:40:39;5.53;;;1.80;;
44169;SDS011;29836;52.286;9.576;2023-09-19T07:43:04;9.18;;;1.83;;
44169;SDS011;29836;52.286;9.576;2023-09-19T07:45:31;13.20;;;1.85;;
44169;SDS011;29836;52.286;9.576;2023-09-19T07:47:58;5.28;;;1.48;;
44169;SDS011;29836;52.286;9.576;2023-09-19T07:50:26;6.90;;;1.73;;
44169;SDS011;29836;52.286;9.576;2023-09-19T07:52:52;6.57;;;1.67;;
44169;SDS011;29836;52.286;9.576;2023-09-19T07:55:18;4.60;;;1.77;;
44169;SDS011;29836;52.286;9.576;2023-09-19T07:57:48;6.85;;;1.92;;
44169;SDS011;29836;52.286;9.576;2023-09-19T08:00:14;7.03;;;1.80;;
44169;SDS011;29836;52.286;9.576;2023-09-19T08:02:40;8.98;;;1.80;;
44169;SDS011;29836;52.286;9.576;2023-09-19T08:05:07;5.68;;;1.63;;
44169;SDS011;29836;52.286;9.576;2023-09-19T08:07:37;5.97;;;1.48;;
44169;SDS011;29836;52.286;9.576;2023-09-19T08:10:07;6.43;;;1.77;;
44169;SDS011;29836;52.286;9.576;2023-09-19T08:12:36;6.05;;;1.65;;
44169;SDS011;29836;52.286;9.576;2023-09-19T08:15:02;8.68;;;1.70;;
44169;SDS011;29836;52.286;9.576;2023-09-19T08:17:28;10.13;;;1.65;;
44169;SDS011;29836;52.286;9.576;2023-09-19T08:19:58;6.93;;;1.85;;
44169;SDS011;29836;52.286;9.576;2023-09-19T08:22:25;7.20;;;1.58;;
44169;SDS011;29836;52.286;9.576;2023-09-19T08:24:52;9.10;;;2.00;;
44169;SDS011;29836;52.286;9.576;2023-09-19T08:27:17;6.63;;;1.85;;
44169;SDS011;29836;52.286;9.576;2023-09-19T08:29:44;4.18;;;1.60;;
44169;SDS011;29836;52.286;9.576;2023-09-19T08:32:11;11.38;;;2.08;;
44169;SDS011;29836;52.286;9.576;2023-09-19T08:34:37;5.10;;;1.50;;
44169;SDS011;29836;52.286;9.576;2023-09-19T08:37:03;4.85;;;1.38;;
44169;SDS011;29836;52.286;9.576;2023-09-19T08:39:29;5.43;;;1.80;;
44169;SDS011;29836;52.286;9.576;2023-09-19T08:41:59;6.30;;;1.80;;
44169;SDS011;29836;52.286;9.576;2023-09-19T08:44:25;6.82;;;1.75;;
44169;SDS011;29836;52.286;9.576;2023-09-19T08:46:55;6.50;;;1.80;;
44169;SDS011;29836;52.286;9.576;2023-09-19T08:49:33;6.80;;;1.90;;
44169;SDS011;29836;52.286;9.576;2023-09-19T08:52:27;7.47;;;2.00;;
44169;SDS011;29836;52.286;9.576;2023-09-19T08:55:01;7.32;;;1.80;;
44169;SDS011;29836;52.286;9.576;2023-09-19T08:57:29;5.43;;;1.67;;
44169;SDS011;29836;52.286;9.576;2023-09-19T08:59:59;6.10;;;2.20;;
44169;SDS011;29836;52.286;9.576;2023-09-19T09:02:26;5.45;;;1.58;;
44169;SDS011;29836;52.286;9.576;2023-09-19T09:04:53;7.25;;;1.73;;
44169;SDS011;29836;52.286;9.576;2023-09-19T09:07:19;8.70;;;2.38;;
44169;SDS011;29836;52.286;9.576;2023-09-19T09:09:46;4.85;;;1.67;;
44169;SDS011;29836;52.286;9.576;2023-09-19T09:12:13;7.30;;;1.67;;
44169;SDS011;29836;52.286;9.576;2023-09-19T09:14:40;7.72;;;1.70;;
44169;SDS011;29836;52.286;9.576;2023-09-19T09:17:10;5.97;;;1.80;;
44169;SDS011;29836;52.286;9.576;2023-09-19T09:19:37;5.25;;;1.50;;
44169;SDS011;29836;52.286;9.576;2023-09-19T09:22:09;5.93;;;1.63;;
44169;SDS011;29836;52.286;9.576;2023-09-19T09:24:35;6.68;;;1.73;;
44169;SDS011;29836;52.286;9.576;2023-09-19T09:27:04;7.85;;;1.92;;
44169;SDS011;29836;52.286;9.576;2023-09-19T09:29:46;9.43;;;2.03;;
44169;SDS011;29836;52.286;9.576;2023-09-19T09:32:24;4.85;;;1.80;;
44169;SDS011;29836;52.286;9.576;2023-09-19T09:34:55;5.78;;;1.65;;
44169;SDS011;29836;52.286;9.576;2023-09-19T09:37:22;7.18;;;1.95;;
44169;SDS011;29836;52.286;9.576;2023-09-19T09:39:50;4.22;;;1.80;;
44169;SDS011;29836;52.286;9.576;2023-09-19T09:42:31;5.97;;;2.00;;
44169;SDS011;29836;52.286;9.576;2023-09-19T09:48:02;6.40;;;1.75;;
44169;SDS011;29836;52.286;9.576;2023-09-19T09:50:33;4.80;;;1.83;;
44169;SDS011;29836;52.286;9.576;2023-09-19T09:53:03;8.90;;;2.13;;
44169;SDS011;29836;52.286;9.576;2023-09-19T09:58:36;9.02;;;2.00;;
44169;SDS011;29836;52.286;9.576;2023-09-19T10:01:03;4.53;;;1.58;;
44169;SDS011;29836;52.286;9.576;2023-09-19T10:03:39;8.07;;;2.08;;
44169;SDS011;29836;52.286;9.576;2023-09-19T10:06:12;7.53;;;1.70;;
44169;SDS011;29836;52.286;9.576;2023-09-19T10:11:47;4.95;;;1.90;;
44169;SDS011;29836;52.286;9.576;2023-09-19T10:14:21;5.32;;;1.67;;
44169;SDS011;29836;52.286;9.576;2023-09-19T10:16:50;10.27;;;2.05;;
44169;SDS011;29836;52.286;9.576;2023-09-19T10:19:28;5.55;;;1.90;;
44169;SDS011;29836;52.286;9.576;2023-09-19T10:21:58;5.88;;;1.70;;
44169;SDS011;29836;52.286;9.576;2023-09-19T10:24:24;5.43;;;2.17;;
44169;SDS011;29836;52.286;9.576;2023-09-19T10:26:52;4.13;;;1.70;;
44169;SDS011;29836;52.286;9.576;2023-09-19T10:29:19;5.18;;;2.05;;
44169;SDS011;29836;52.286;9.576;2023-09-19T10:31:49;6.47;;;1.58;;
44169;SDS011;29836;52.286;9.576;2023-09-19T10:34:18;6.28;;;1.80;;
44169;SDS011;29836;52.286;9.576;2023-09-19T10:36:45;8.40;;;2.15;;
44169;SDS011;29836;52.286;9.576;2023-09-19T10:39:15;5.88;;;1.63;;
44169;SDS011;29836;52.286;9.576;2023-09-19T10:41:51;4.55;;;1.88;;
44169;SDS011;29836;52.286;9.576;2023-09-19T10:44:23;5.47;;;1.88;;
44169;SDS011;29836;52.286;9.576;2023-09-19T10:46:53;8.00;;;1.90;;
44169;SDS011;29836;52.286;9.576;2023-09-19T10:49:20;5.03;;;1.90;;
44169;SDS011;29836;52.286;9.576;2023-09-19T10:51:47;6.10;;;2.03;;
44169;SDS011;29836;52.286;9.576;2023-09-19T10:54:17;6.30;;;1.95;;
44169;SDS011;29836;52.286;9.576;2023-09-19T10:56:46;6.88;;;1.95;;
44169;SDS011;29836;52.286;9.576;2023-09-19T10:59:16;8.38;;;1.88;;
44169;SDS011;29836;52.286;9.576;2023-09-19T11:01:44;5.93;;;2.10;;
44169;SDS011;29836;52.286;9.576;2023-09-19T11:07:05;7.65;;;1.85;;
44169;SDS011;29836;52.286;9.576;2023-09-19T11:14:56;4.80;;;1.98;;
44169;SDS011;29836;52.286;9.576;2023-09-19T11:17:31;4.43;;;1.67;;
44169;SDS011;29836;52.286;9.576;2023-09-19T11:28:37;6.45;;;2.05;;
44169;SDS011;29836;52.286;9.576;2023-09-19T11:30:51;6.53;;;1.77;;
44169;SDS011;29836;52.286;9.576;2023-09-19T11:36:11;5.80;;;1.75;;
44169;SDS011;29836;52.286;9.576;2023-09-19T11:47:14;9.70;;;1.90;;
44169;SDS011;29836;52.286;9.576;2023-09-19T11:49:17;6.38;;;1.85;;
44169;SDS011;29836;52.286;9.576;2023-09-19T11:51:50;5.03;;;1.75;;
44169;SDS011;29836;52.286;9.576;2023-09-19T11:54:18;6.70;;;1.90;;
44169;SDS011;29836;52.286;9.576;2023-09-19T11:56:50;4.97;;;1.92;;
44169;SDS011;29836;52.286;9.576;2023-09-19T12:01:51;6.72;;;2.08;;
44169;SDS011;29836;52.286;9.576;2023-09-19T12:04:36;4.30;;;1.77;;
44169;SDS011;29836;52.286;9.576;2023-09-19T12:07:03;7.72;;;1.90;;
44169;SDS011;29836;52.286;9.576;2023-09-19T12:09:30;6.82;;;2.10;;
44169;SDS011;29836;52.286;9.576;2023-09-19T12:11:57;4.90;;;1.90;;
44169;SDS011;29836;52.286;9.576;2023-09-19T12:14:23;10.68;;;2.28;;
44169;SDS011;29836;52.286;9.576;2023-09-19T12:16:54;5.00;;;1.83;;
44169;SDS011;29836;52.286;9.576;2023-09-19T12:19:21;5.88;;;2.03;;
44169;SDS011;29836;52.286;9.576;2023-09-19T12:22:03;4.85;;;1.58;;
44169;SDS011;29836;52.286;9.576;2023-09-19T12:24:34;5.85;;;1.90;;
44169;SDS011;29836;52.286;9.576;2023-09-19T12:27:03;8.05;;;2.42;;
44169;SDS011;29836;52.286;9.576;2023-09-19T12:29:31;7.00;;;2.20;;
44169;SDS011;29836;52.286;9.576;2023-09-19T12:32:06;7.15;;;1.90;;
44169;SDS011;29836;52.286;9.576;2023-09-19T12:34:32;6.43;;;1.98;;
44169;SDS011;29836;52.286;9.576;2023-09-19T12:37:13;8.70;;;2.10;;
44169;SDS011;29836;52.286;9.576;2023-09-19T12:39:46;6.95;;;2.00;;
44169;SDS011;29836;52.286;9.576;2023-09-19T12:42:14;6.75;;;1.90;;
44169;SDS011;29836;52.286;9.576;2023-09-19T12:44:50;5.75;;;2.20;;
44169;SDS011;29836;52.286;9.576;2023-09-19T12:47:22;5.72;;;1.90;;
44169;SDS011;29836;52.286;9.576;2023-09-19T12:52:48;5.65;;;2.15;;
44169;SDS011;29836;52.286;9.576;2023-09-19T12:55:25;7.88;;;1.80;;
44169;SDS011;29836;52.286;9.576;2023-09-19T13:00:40;5.00;;;2.03;;
44169;SDS011;29836;52.286;9.576;2023-09-19T13:03:30;5.60;;;1.70;;
44169;SDS011;29836;52.286;9.576;2023-09-19T13:05:58;5.50;;;2.00;;
44169;SDS011;29836;52.286;9.576;2023-09-19T13:11:10;5.18;;;1.60;;
44169;SDS011;29836;52.286;9.576;2023-09-19T13:13:38;4.63;;;1.80;;
44169;SDS011;29836;52.286;9.576;2023-09-19T13:16:04;4.68;;;1.67;;
44169;SDS011;29836;52.286;9.576;2023-09-19T13:21:32;7.28;;;2.10;;
44169;SDS011;29836;52.286;9.576;2023-09-19T13:24:21;7.53;;;2.30;;
44169;SDS011;29836;52.286;9.576;2023-09-19T13:26:52;4.47;;;1.90;;
44169;SDS011;29836;52.286;9.576;2023-09-19T13:29:17;6.03;;;1.90;;
44169;SDS011;29836;52.286;9.576;2023-09-19T13:31:52;16.90;;;2.58;;
44169;SDS011;29836;52.286;9.576;2023-09-19T13:34:21;8.52;;;2.00;;
44169;SDS011;29836;52.286;9.576;2023-09-19T13:36:47;5.30;;;1.90;;
44169;SDS011;29836;52.286;9.576;2023-09-19T13:39:13;5.97;;;1.98;;
44169;SDS011;29836;52.286;9.576;2023-09-19T13:41:40;5.35;;;1.90;;
44169;SDS011;29836;52.286;9.576;2023-09-19T13:44:08;4.30;;;1.50;;
44169;SDS011;29836;52.286;9.576;2023-09-19T13:46:35;7.20;;;1.70;;
44169;SDS011;29836;52.286;9.576;2023-09-19T13:49:02;5.43;;;1.80;;
44169;SDS011;29836;52.286;9.576;2023-09-19T13:51:28;4.10;;;1.60;;
44169;SDS011;29836;52.286;9.576;2023-09-19T13:53:55;7.43;;;2.00;;
44169;SDS011;29836;52.286;9.576;2023-09-19T13:56:21;5.07;;;1.60;;
44169;SDS011;29836;52.286;9.576;2023-09-19T13:58:46;5.32;;;1.90;;
44169;SDS011;29836;52.286;9.576;2023-09-19T14:01:12;6.47;;;1.80;;
44169;SDS011;29836;52.286;9.576;2023-09-19T14:03:38;6.32;;;1.98;;
44169;SDS011;29836;52.286;9.576;2023-09-19T14:06:05;5.07;;;1.80;;
44169;SDS011;29836;52.286;9.576;2023-09-19T14:08:30;2.90;;;1.55;;
44169;SDS011;29836;52.286;9.576;2023-09-19T14:10:58;5.35;;;1.90;;
44169;SDS011;29836;52.286;9.576;2023-09-19T14:13:24;3.95;;;1.67;;
44169;SDS011;29836;52.286;9.576;2023-09-19T14:15:50;6.43;;;2.00;;
44169;SDS011;29836;52.286;9.576;2023-09-19T14:18:16;7.95;;;1.70;;
44169;SDS011;29836;52.286;9.576;2023-09-19T14:20:43;7.15;;;1.67;;
44169;SDS011;29836;52.286;9.576;2023-09-19T14:23:09;4.18;;;1.67;;
44169;SDS011;29836;52.286;9.576;2023-09-19T14:25:34;5.85;;;1.80;;
44169;SDS011;29836;52.286;9.576;2023-09-19T14:28:01;4.57;;;1.42;;
44169;SDS011;29836;52.286;9.576;2023-09-19T14:30:27;7.05;;;1.80;;
44169;SDS011;29836;52.286;9.576;2023-09-19T14:32:52;5.32;;;2.00;;
44169;SDS011;29836;52.286;9.576;2023-09-19T14:35:18;2.95;;;1.40;;
44169;SDS011;29836;52.286;9.576;2023-09-19T14:37:44;5.43;;;1.50;;
44169;SDS011;29836;52.286;9.576;2023-09-19T14:40:10;5.65;;;1.77;;
44169;SDS011;29836;52.286;9.576;2023-09-19T14:42:38;5.68;;;1.60;;
44169;SDS011;29836;52.286;9.576;2023-09-19T14:45:04;5.55;;;1.80;;
44169;SDS011;29836;52.286;9.576;2023-09-19T14:47:31;4.38;;;1.55;;
44169;SDS011;29836;52.286;9.576;2023-09-19T14:49:59;3.90;;;1.50;;
44169;SDS011;29836;52.286;9.576;2023-09-19T14:52:26;2.95;;;1.35;;
44169;SDS011;29836;52.286;9.576;2023-09-19T14:54:53;4.82;;;1.50;;
44169;SDS011;29836;52.286;9.576;2023-09-19T14:57:19;4.47;;;1.60;;
44169;SDS011;29836;52.286;9.576;2023-09-19T14:59:45;5.55;;;1.73;;
44169;SDS011;29836;52.286;9.576;2023-09-19T15:02:10;5.32;;;1.65;;
44169;SDS011;29836;52.286;9.576;2023-09-19T15:04:36;3.67;;;1.40;;
44169;SDS011;29836;52.286;9.576;2023-09-19T15:07:05;3.47;;;1.17;;
44169;SDS011;29836;52.286;9.576;2023-09-19T15:09:31;3.47;;;1.45;;
44169;SDS011;29836;52.286;9.576;2023-09-19T15:11:58;3.83;;;1.50;;
44169;SDS011;29836;52.286;9.576;2023-09-19T15:14:24;5.25;;;1.73;;
44169;SDS011;29836;52.286;9.576;2023-09-19T15:16:50;4.07;;;1.70;;
44169;SDS011;29836;52.286;9.576;2023-09-19T15:19:16;6.43;;;1.73;;
44169;SDS011;29836;52.286;9.576;2023-09-19T15:21:42;4.10;;;1.90;;
44169;SDS011;29836;52.286;9.576;2023-09-19T15:24:08;5.13;;;1.45;;
44169;SDS011;29836;52.286;9.576;2023-09-19T15:26:35;3.95;;;1.48;;
44169;SDS011;29836;52.286;9.576;2023-09-19T15:29:04;4.97;;;1.60;;
44169;SDS011;29836;52.286;9.576;2023-09-19T15:31:30;4.00;;;1.42;;
44169;SDS011;29836;52.286;9.576;2023-09-19T15:33:56;5.97;;;1.67;;
44169;SDS011;29836;52.286;9.576;2023-09-19T15:36:22;2.90;;;1.48;;
44169;SDS011;29836;52.286;9.576;2023-09-19T15:38:58;3.97;;;1.40;;
44169;SDS011;29836;52.286;9.576;2023-09-19T15:41:24;5.30;;;1.50;;
44169;SDS011;29836;52.286;9.576;2023-09-19T15:43:52;3.70;;;1.60;;
44169;SDS011;29836;52.286;9.576;2023-09-19T15:46:18;3.58;;;1.40;;
44169;SDS011;29836;52.286;9.576;2023-09-19T15:48:45;5.82;;;1.50;;
44169;SDS011;29836;52.286;9.576;2023-09-19T15:51:11;4.63;;;1.52;;
44169;SDS011;29836;52.286;9.576;2023-09-19T15:53:46;3.15;;;1.40;;
44169;SDS011;29836;52.286;9.576;2023-09-19T15:56:18;5.60;;;1.50;;